sensor_id;sensor_type;location;lat;lon;timestamp;P1;durP1;ratioP1;P2;durP2;ratioP2
56037;SDS011;41907;47.848;9.000;2024-01-10T00:00:25;50.92;;;23.48;;
56037;SDS011;41907;47.848;9.000;2024-01-10T00:02:51;51.53;;;22.73;;
56037;SDS011;41907;47.848;9.000;2024-01-10T00:05:17;53.00;;;22.60;;
56037;SDS011;41907;47.848;9.000;2024-01-10T00:07:43;57.17;;;25.42;;
56037;SDS011;41907;47.848;9.000;2024-01-10T00:10:08;53.58;;;23.63;;
56037;SDS011;41907;47.848;9.000;2024-01-10T00:12:33;50.60;;;22.52;;
56037;SDS011;41907;47.848;9.000;2024-01-10T00:15:02;48.35;;;21.75;;
56037;SDS011;41907;47.848;9.000;2024-01-10T00:17:29;48.33;;;23.15;;
56037;SDS011;41907;47.848;9.000;2024-01-10T00:19:55;51.38;;;22.13;;
56037;SDS011;41907;47.848;9.000;2024-01-10T00:22:20;54.80;;;23.48;;
56037;SDS011;41907;47.848;9.000;2024-01-10T00:24:46;57.20;;;24.00;;
56037;SDS011;41907;47.848;9.000;2024-01-10T00:27:11;51.22;;;23.92;;
56037;SDS011;41907;47.848;9.000;2024-01-10T00:29:36;56.22;;;24.38;;
56037;SDS011;41907;47.848;9.000;2024-01-10T00:32:02;55.65;;;23.70;;
56037;SDS011;41907;47.848;9.000;2024-01-10T00:34:27;48.72;;;23.00;;
56037;SDS011;41907;47.848;9.000;2024-01-10T00:36:53;53.55;;;23.60;;
56037;SDS011;41907;47.848;9.000;2024-01-10T00:39:18;49.83;;;23.35;;
56037;SDS011;41907;47.848;9.000;2024-01-10T00:41:43;52.30;;;23.77;;
56037;SDS011;41907;47.848;9.000;2024-01-10T00:44:08;50.22;;;23.23;;
56037;SDS011;41907;47.848;9.000;2024-01-10T00:46:34;51.42;;;23.92;;
56037;SDS011;41907;47.848;9.000;2024-01-10T00:48:59;55.25;;;26.55;;
56037;SDS011;41907;47.848;9.000;2024-01-10T00:51:24;54.90;;;23.55;;
56037;SDS011;41907;47.848;9.000;2024-01-10T00:53:50;55.83;;;23.98;;
56037;SDS011;41907;47.848;9.000;2024-01-10T00:56:15;48.47;;;25.42;;
56037;SDS011;41907;47.848;9.000;2024-01-10T00:58:41;58.90;;;25.88;;
56037;SDS011;41907;47.848;9.000;2024-01-10T01:01:07;53.72;;;23.95;;
56037;SDS011;41907;47.848;9.000;2024-01-10T01:03:32;55.90;;;25.48;;
56037;SDS011;41907;47.848;9.000;2024-01-10T01:05:57;55.65;;;25.08;;
56037;SDS011;41907;47.848;9.000;2024-01-10T01:08:23;58.35;;;25.95;;
56037;SDS011;41907;47.848;9.000;2024-01-10T01:10:48;66.07;;;27.75;;
56037;SDS011;41907;47.848;9.000;2024-01-10T01:13:13;53.85;;;25.05;;
56037;SDS011;41907;47.848;9.000;2024-01-10T01:15:39;49.90;;;25.10;;
56037;SDS011;41907;47.848;9.000;2024-01-10T01:18:04;54.25;;;25.60;;
56037;SDS011;41907;47.848;9.000;2024-01-10T01:20:30;51.17;;;24.77;;
56037;SDS011;41907;47.848;9.000;2024-01-10T01:22:56;55.08;;;26.13;;
56037;SDS011;41907;47.848;9.000;2024-01-10T01:25:21;52.60;;;24.60;;
56037;SDS011;41907;47.848;9.000;2024-01-10T01:27:46;55.45;;;24.80;;
56037;SDS011;41907;47.848;9.000;2024-01-10T01:30:12;53.13;;;24.48;;
56037;SDS011;41907;47.848;9.000;2024-01-10T01:32:37;55.88;;;25.02;;
56037;SDS011;41907;47.848;9.000;2024-01-10T01:35:03;54.05;;;23.90;;
56037;SDS011;41907;47.848;9.000;2024-01-10T01:37:29;50.63;;;24.73;;
56037;SDS011;41907;47.848;9.000;2024-01-10T01:39:54;52.60;;;25.48;;
56037;SDS011;41907;47.848;9.000;2024-01-10T01:42:20;53.50;;;24.38;;
56037;SDS011;41907;47.848;9.000;2024-01-10T01:44:45;55.63;;;25.00;;
56037;SDS011;41907;47.848;9.000;2024-01-10T01:47:11;51.47;;;23.77;;
56037;SDS011;41907;47.848;9.000;2024-01-10T01:49:36;45.72;;;21.60;;
56037;SDS011;41907;47.848;9.000;2024-01-10T01:52:02;50.28;;;23.55;;
56037;SDS011;41907;47.848;9.000;2024-01-10T01:54:27;52.30;;;25.17;;
56037;SDS011;41907;47.848;9.000;2024-01-10T01:56:53;55.10;;;24.13;;
56037;SDS011;41907;47.848;9.000;2024-01-10T01:59:19;57.42;;;24.88;;
56037;SDS011;41907;47.848;9.000;2024-01-10T02:01:45;48.03;;;23.10;;
56037;SDS011;41907;47.848;9.000;2024-01-10T02:04:11;55.40;;;24.13;;
56037;SDS011;41907;47.848;9.000;2024-01-10T02:06:36;50.63;;;23.30;;
56037;SDS011;41907;47.848;9.000;2024-01-10T02:09:02;48.22;;;23.75;;
56037;SDS011;41907;47.848;9.000;2024-01-10T02:11:28;55.40;;;24.65;;
56037;SDS011;41907;47.848;9.000;2024-01-10T02:13:54;58.25;;;26.55;;
56037;SDS011;41907;47.848;9.000;2024-01-10T02:16:23;54.97;;;24.88;;
56037;SDS011;41907;47.848;9.000;2024-01-10T02:18:49;62.88;;;26.10;;
56037;SDS011;41907;47.848;9.000;2024-01-10T02:21:15;51.88;;;24.50;;
56037;SDS011;41907;47.848;9.000;2024-01-10T02:23:41;57.47;;;25.25;;
56037;SDS011;41907;47.848;9.000;2024-01-10T02:26:06;54.00;;;25.33;;
56037;SDS011;41907;47.848;9.000;2024-01-10T02:28:32;57.70;;;27.00;;
56037;SDS011;41907;47.848;9.000;2024-01-10T02:30:57;56.35;;;24.40;;
56037;SDS011;41907;47.848;9.000;2024-01-10T02:33:23;55.85;;;25.23;;
56037;SDS011;41907;47.848;9.000;2024-01-10T02:35:48;58.17;;;27.02;;
56037;SDS011;41907;47.848;9.000;2024-01-10T02:38:14;56.40;;;25.08;;
56037;SDS011;41907;47.848;9.000;2024-01-10T02:40:39;54.70;;;25.33;;
56037;SDS011;41907;47.848;9.000;2024-01-10T02:43:05;59.05;;;25.33;;
56037;SDS011;41907;47.848;9.000;2024-01-10T02:45:32;52.42;;;24.10;;
56037;SDS011;41907;47.848;9.000;2024-01-10T02:47:57;53.88;;;24.85;;
56037;SDS011;41907;47.848;9.000;2024-01-10T02:50:23;55.25;;;25.67;;
56037;SDS011;41907;47.848;9.000;2024-01-10T02:52:48;56.97;;;25.95;;
56037;SDS011;41907;47.848;9.000;2024-01-10T02:55:13;58.20;;;26.52;;
56037;SDS011;41907;47.848;9.000;2024-01-10T02:57:39;59.63;;;26.48;;
56037;SDS011;41907;47.848;9.000;2024-01-10T03:00:04;53.47;;;24.45;;
56037;SDS011;41907;47.848;9.000;2024-01-10T03:02:30;53.35;;;24.40;;
56037;SDS011;41907;47.848;9.000;2024-01-10T03:04:56;56.10;;;25.63;;
56037;SDS011;41907;47.848;9.000;2024-01-10T03:07:21;55.92;;;24.75;;
56037;SDS011;41907;47.848;9.000;2024-01-10T03:09:49;54.67;;;23.67;;
56037;SDS011;41907;47.848;9.000;2024-01-10T03:12:15;51.38;;;23.98;;
56037;SDS011;41907;47.848;9.000;2024-01-10T03:14:40;52.15;;;23.30;;
56037;SDS011;41907;47.848;9.000;2024-01-10T03:17:05;51.67;;;24.15;;
56037;SDS011;41907;47.848;9.000;2024-01-10T03:19:31;50.22;;;23.90;;
56037;SDS011;41907;47.848;9.000;2024-01-10T03:21:56;48.92;;;23.95;;
56037;SDS011;41907;47.848;9.000;2024-01-10T03:24:21;53.67;;;24.27;;
56037;SDS011;41907;47.848;9.000;2024-01-10T03:26:49;50.65;;;24.05;;
56037;SDS011;41907;47.848;9.000;2024-01-10T03:29:14;50.03;;;23.92;;
56037;SDS011;41907;47.848;9.000;2024-01-10T03:31:39;57.42;;;26.17;;
56037;SDS011;41907;47.848;9.000;2024-01-10T03:34:05;48.22;;;23.15;;
56037;SDS011;41907;47.848;9.000;2024-01-10T03:36:30;49.85;;;23.15;;
56037;SDS011;41907;47.848;9.000;2024-01-10T03:38:55;52.85;;;24.27;;
56037;SDS011;41907;47.848;9.000;2024-01-10T03:41:21;47.80;;;23.52;;
56037;SDS011;41907;47.848;9.000;2024-01-10T03:43:46;51.78;;;23.17;;
56037;SDS011;41907;47.848;9.000;2024-01-10T03:46:12;45.42;;;22.17;;
56037;SDS011;41907;47.848;9.000;2024-01-10T03:48:39;52.65;;;25.52;;
56037;SDS011;41907;47.848;9.000;2024-01-10T03:51:17;44.83;;;22.35;;
56037;SDS011;41907;47.848;9.000;2024-01-10T03:53:43;44.60;;;22.70;;
56037;SDS011;41907;47.848;9.000;2024-01-10T03:56:09;50.20;;;22.60;;
56037;SDS011;41907;47.848;9.000;2024-01-10T03:58:36;48.95;;;23.30;;
56037;SDS011;41907;47.848;9.000;2024-01-10T04:01:05;51.65;;;22.30;;
56037;SDS011;41907;47.848;9.000;2024-01-10T04:03:31;49.85;;;22.77;;
56037;SDS011;41907;47.848;9.000;2024-01-10T04:05:57;46.95;;;21.98;;
56037;SDS011;41907;47.848;9.000;2024-01-10T04:08:23;49.42;;;23.48;;
56037;SDS011;41907;47.848;9.000;2024-01-10T04:10:48;43.70;;;21.27;;
56037;SDS011;41907;47.848;9.000;2024-01-10T04:13:13;53.40;;;23.17;;
56037;SDS011;41907;47.848;9.000;2024-01-10T04:15:39;48.22;;;23.10;;
56037;SDS011;41907;47.848;9.000;2024-01-10T04:18:04;51.80;;;22.00;;
56037;SDS011;41907;47.848;9.000;2024-01-10T04:20:29;47.25;;;21.27;;
56037;SDS011;41907;47.848;9.000;2024-01-10T04:22:55;47.15;;;22.77;;
56037;SDS011;41907;47.848;9.000;2024-01-10T04:25:20;44.55;;;23.73;;
56037;SDS011;41907;47.848;9.000;2024-01-10T04:27:46;51.28;;;23.45;;
56037;SDS011;41907;47.848;9.000;2024-01-10T04:30:11;50.85;;;22.98;;
56037;SDS011;41907;47.848;9.000;2024-01-10T04:32:37;47.33;;;23.08;;
56037;SDS011;41907;47.848;9.000;2024-01-10T04:35:02;53.55;;;23.88;;
56037;SDS011;41907;47.848;9.000;2024-01-10T04:37:28;52.30;;;24.33;;
56037;SDS011;41907;47.848;9.000;2024-01-10T04:39:53;47.28;;;22.13;;
56037;SDS011;41907;47.848;9.000;2024-01-10T04:42:19;48.88;;;23.42;;
56037;SDS011;41907;47.848;9.000;2024-01-10T04:44:44;47.25;;;22.33;;
56037;SDS011;41907;47.848;9.000;2024-01-10T04:47:10;52.47;;;23.98;;
56037;SDS011;41907;47.848;9.000;2024-01-10T04:49:35;57.15;;;25.83;;
56037;SDS011;41907;47.848;9.000;2024-01-10T04:52:01;53.22;;;23.65;;
56037;SDS011;41907;47.848;9.000;2024-01-10T04:54:26;47.35;;;23.48;;
56037;SDS011;41907;47.848;9.000;2024-01-10T04:56:52;55.45;;;25.17;;
56037;SDS011;41907;47.848;9.000;2024-01-10T04:59:17;58.72;;;24.55;;
56037;SDS011;41907;47.848;9.000;2024-01-10T05:01:42;54.42;;;25.70;;
56037;SDS011;41907;47.848;9.000;2024-01-10T05:04:08;56.03;;;26.33;;
56037;SDS011;41907;47.848;9.000;2024-01-10T05:06:33;60.00;;;25.58;;
56037;SDS011;41907;47.848;9.000;2024-01-10T05:08:58;58.85;;;25.20;;
56037;SDS011;41907;47.848;9.000;2024-01-10T05:11:24;54.42;;;25.50;;
56037;SDS011;41907;47.848;9.000;2024-01-10T05:13:53;56.72;;;25.15;;
56037;SDS011;41907;47.848;9.000;2024-01-10T05:16:19;54.20;;;25.83;;
56037;SDS011;41907;47.848;9.000;2024-01-10T05:18:44;61.60;;;24.98;;
56037;SDS011;41907;47.848;9.000;2024-01-10T05:21:09;53.83;;;23.42;;
56037;SDS011;41907;47.848;9.000;2024-01-10T05:23:35;54.50;;;24.23;;
56037;SDS011;41907;47.848;9.000;2024-01-10T05:26:01;50.55;;;23.55;;
56037;SDS011;41907;47.848;9.000;2024-01-10T05:28:27;55.58;;;24.73;;
56037;SDS011;41907;47.848;9.000;2024-01-10T05:30:52;53.97;;;23.90;;
56037;SDS011;41907;47.848;9.000;2024-01-10T05:33:19;49.75;;;23.23;;
56037;SDS011;41907;47.848;9.000;2024-01-10T05:35:45;50.55;;;23.48;;
56037;SDS011;41907;47.848;9.000;2024-01-10T05:38:10;56.45;;;25.23;;
56037;SDS011;41907;47.848;9.000;2024-01-10T05:40:36;54.13;;;24.63;;
56037;SDS011;41907;47.848;9.000;2024-01-10T05:43:01;52.65;;;23.67;;
56037;SDS011;41907;47.848;9.000;2024-01-10T05:45:26;55.95;;;25.25;;
56037;SDS011;41907;47.848;9.000;2024-01-10T05:47:53;55.17;;;25.02;;
56037;SDS011;41907;47.848;9.000;2024-01-10T05:50:18;54.42;;;23.80;;
56037;SDS011;41907;47.848;9.000;2024-01-10T05:52:44;53.05;;;23.63;;
56037;SDS011;41907;47.848;9.000;2024-01-10T05:55:10;52.78;;;22.42;;
56037;SDS011;41907;47.848;9.000;2024-01-10T05:57:36;55.55;;;26.25;;
56037;SDS011;41907;47.848;9.000;2024-01-10T06:00:02;50.70;;;24.88;;
56037;SDS011;41907;47.848;9.000;2024-01-10T06:02:28;53.47;;;23.73;;
56037;SDS011;41907;47.848;9.000;2024-01-10T06:04:53;55.10;;;24.67;;
56037;SDS011;41907;47.848;9.000;2024-01-10T06:07:19;49.55;;;23.13;;
56037;SDS011;41907;47.848;9.000;2024-01-10T06:09:46;54.15;;;23.42;;
56037;SDS011;41907;47.848;9.000;2024-01-10T06:12:11;51.83;;;23.75;;
56037;SDS011;41907;47.848;9.000;2024-01-10T06:14:37;51.50;;;22.50;;
56037;SDS011;41907;47.848;9.000;2024-01-10T06:17:02;51.60;;;21.85;;
56037;SDS011;41907;47.848;9.000;2024-01-10T06:19:29;44.85;;;21.98;;
56037;SDS011;41907;47.848;9.000;2024-01-10T06:21:56;46.45;;;22.15;;
56037;SDS011;41907;47.848;9.000;2024-01-10T06:24:21;54.38;;;23.70;;
56037;SDS011;41907;47.848;9.000;2024-01-10T06:26:46;49.03;;;22.58;;
56037;SDS011;41907;47.848;9.000;2024-01-10T06:29:14;51.13;;;24.10;;
56037;SDS011;41907;47.848;9.000;2024-01-10T06:31:40;44.35;;;21.70;;
56037;SDS011;41907;47.848;9.000;2024-01-10T06:34:05;53.65;;;23.50;;
56037;SDS011;41907;47.848;9.000;2024-01-10T06:36:31;51.15;;;23.48;;
56037;SDS011;41907;47.848;9.000;2024-01-10T06:38:56;52.20;;;22.92;;
56037;SDS011;41907;47.848;9.000;2024-01-10T06:41:21;49.42;;;23.02;;
56037;SDS011;41907;47.848;9.000;2024-01-10T06:43:49;48.28;;;24.20;;
56037;SDS011;41907;47.848;9.000;2024-01-10T06:46:15;50.45;;;21.95;;
56037;SDS011;41907;47.848;9.000;2024-01-10T06:48:41;52.55;;;25.08;;
56037;SDS011;41907;47.848;9.000;2024-01-10T06:51:09;56.15;;;24.40;;
56037;SDS011;41907;47.848;9.000;2024-01-10T06:53:36;57.22;;;25.02;;
56037;SDS011;41907;47.848;9.000;2024-01-10T06:56:02;53.53;;;23.85;;
56037;SDS011;41907;47.848;9.000;2024-01-10T06:58:27;53.78;;;24.15;;
56037;SDS011;41907;47.848;9.000;2024-01-10T07:00:53;54.40;;;24.58;;
56037;SDS011;41907;47.848;9.000;2024-01-10T07:03:18;58.42;;;25.40;;
56037;SDS011;41907;47.848;9.000;2024-01-10T07:05:44;48.17;;;23.63;;
56037;SDS011;41907;47.848;9.000;2024-01-10T07:08:09;50.83;;;24.88;;
56037;SDS011;41907;47.848;9.000;2024-01-10T07:10:35;50.88;;;23.50;;
56037;SDS011;41907;47.848;9.000;2024-01-10T07:13:00;49.42;;;23.33;;
56037;SDS011;41907;47.848;9.000;2024-01-10T07:15:29;48.90;;;21.35;;
56037;SDS011;41907;47.848;9.000;2024-01-10T07:17:54;51.88;;;22.45;;
56037;SDS011;41907;47.848;9.000;2024-01-10T07:20:20;48.90;;;21.95;;
56037;SDS011;41907;47.848;9.000;2024-01-10T07:22:45;49.70;;;23.67;;
56037;SDS011;41907;47.848;9.000;2024-01-10T07:25:11;50.42;;;23.83;;
56037;SDS011;41907;47.848;9.000;2024-01-10T07:27:39;58.85;;;25.27;;
56037;SDS011;41907;47.848;9.000;2024-01-10T07:30:07;56.58;;;23.73;;
56037;SDS011;41907;47.848;9.000;2024-01-10T07:32:38;54.42;;;24.63;;
56037;SDS011;41907;47.848;9.000;2024-01-10T07:35:10;51.75;;;24.85;;
56037;SDS011;41907;47.848;9.000;2024-01-10T07:37:39;53.45;;;24.35;;
56037;SDS011;41907;47.848;9.000;2024-01-10T07:40:05;57.92;;;26.38;;
56037;SDS011;41907;47.848;9.000;2024-01-10T07:42:35;53.30;;;25.02;;
56037;SDS011;41907;47.848;9.000;2024-01-10T07:45:01;53.85;;;26.73;;
56037;SDS011;41907;47.848;9.000;2024-01-10T07:47:29;57.53;;;26.58;;
56037;SDS011;41907;47.848;9.000;2024-01-10T07:49:59;51.35;;;24.77;;
56037;SDS011;41907;47.848;9.000;2024-01-10T07:52:24;56.03;;;26.90;;
56037;SDS011;41907;47.848;9.000;2024-01-10T07:54:50;58.28;;;25.20;;
56037;SDS011;41907;47.848;9.000;2024-01-10T07:57:15;56.13;;;24.58;;
56037;SDS011;41907;47.848;9.000;2024-01-10T07:59:43;53.42;;;26.73;;
56037;SDS011;41907;47.848;9.000;2024-01-10T08:02:09;50.50;;;23.58;;
56037;SDS011;41907;47.848;9.000;2024-01-10T08:04:35;56.05;;;25.00;;
56037;SDS011;41907;47.848;9.000;2024-01-10T08:07:00;57.22;;;25.15;;
56037;SDS011;41907;47.848;9.000;2024-01-10T08:09:26;54.35;;;25.17;;
56037;SDS011;41907;47.848;9.000;2024-01-10T08:11:51;57.28;;;24.50;;
56037;SDS011;41907;47.848;9.000;2024-01-10T08:14:17;51.50;;;24.85;;
56037;SDS011;41907;47.848;9.000;2024-01-10T08:16:42;62.78;;;25.30;;
56037;SDS011;41907;47.848;9.000;2024-01-10T08:19:08;48.65;;;23.88;;
56037;SDS011;41907;47.848;9.000;2024-01-10T08:21:33;51.45;;;25.52;;
56037;SDS011;41907;47.848;9.000;2024-01-10T08:23:59;53.90;;;24.83;;
56037;SDS011;41907;47.848;9.000;2024-01-10T08:26:27;53.22;;;25.23;;
56037;SDS011;41907;47.848;9.000;2024-01-10T08:28:52;56.13;;;24.67;;
56037;SDS011;41907;47.848;9.000;2024-01-10T08:31:17;53.47;;;24.80;;
56037;SDS011;41907;47.848;9.000;2024-01-10T08:33:43;53.35;;;23.85;;
56037;SDS011;41907;47.848;9.000;2024-01-10T08:36:08;49.30;;;25.15;;
56037;SDS011;41907;47.848;9.000;2024-01-10T08:38:35;49.00;;;22.50;;
56037;SDS011;41907;47.848;9.000;2024-01-10T08:41:01;47.72;;;23.55;;
56037;SDS011;41907;47.848;9.000;2024-01-10T08:43:26;51.30;;;24.50;;
56037;SDS011;41907;47.848;9.000;2024-01-10T08:45:52;53.45;;;22.40;;
56037;SDS011;41907;47.848;9.000;2024-01-10T08:48:17;45.38;;;22.98;;
56037;SDS011;41907;47.848;9.000;2024-01-10T08:50:42;50.65;;;22.65;;
56037;SDS011;41907;47.848;9.000;2024-01-10T08:53:09;48.67;;;21.88;;
56037;SDS011;41907;47.848;9.000;2024-01-10T08:55:35;48.50;;;21.88;;
56037;SDS011;41907;47.848;9.000;2024-01-10T08:58:02;44.50;;;21.13;;
56037;SDS011;41907;47.848;9.000;2024-01-10T09:00:28;49.78;;;23.42;;
56037;SDS011;41907;47.848;9.000;2024-01-10T09:02:54;51.08;;;23.23;;
56037;SDS011;41907;47.848;9.000;2024-01-10T09:05:20;47.53;;;21.35;;
56037;SDS011;41907;47.848;9.000;2024-01-10T09:07:46;44.13;;;21.40;;
56037;SDS011;41907;47.848;9.000;2024-01-10T09:10:12;50.22;;;22.98;;
56037;SDS011;41907;47.848;9.000;2024-01-10T09:12:37;46.28;;;22.65;;
56037;SDS011;41907;47.848;9.000;2024-01-10T09:15:03;45.13;;;21.55;;
56037;SDS011;41907;47.848;9.000;2024-01-10T09:17:28;46.60;;;22.70;;
56037;SDS011;41907;47.848;9.000;2024-01-10T09:19:54;42.70;;;21.52;;
56037;SDS011;41907;47.848;9.000;2024-01-10T09:22:19;49.75;;;22.45;;
56037;SDS011;41907;47.848;9.000;2024-01-10T09:24:45;44.85;;;21.05;;
56037;SDS011;41907;47.848;9.000;2024-01-10T09:27:10;43.85;;;22.02;;
56037;SDS011;41907;47.848;9.000;2024-01-10T09:29:36;44.85;;;22.65;;
56037;SDS011;41907;47.848;9.000;2024-01-10T09:32:01;45.25;;;21.67;;
56037;SDS011;41907;47.848;9.000;2024-01-10T09:34:27;43.42;;;20.95;;
56037;SDS011;41907;47.848;9.000;2024-01-10T09:36:52;44.80;;;21.70;;
56037;SDS011;41907;47.848;9.000;2024-01-10T09:39:18;42.88;;;21.30;;
56037;SDS011;41907;47.848;9.000;2024-01-10T09:41:49;45.75;;;21.25;;
56037;SDS011;41907;47.848;9.000;2024-01-10T09:44:16;41.97;;;22.40;;
56037;SDS011;41907;47.848;9.000;2024-01-10T09:46:52;44.42;;;21.10;;
56037;SDS011;41907;47.848;9.000;2024-01-10T09:49:19;50.28;;;22.80;;
56037;SDS011;41907;47.848;9.000;2024-01-10T09:51:47;45.65;;;22.95;;
56037;SDS011;41907;47.848;9.000;2024-01-10T09:54:14;46.33;;;22.60;;
56037;SDS011;41907;47.848;9.000;2024-01-10T09:56:41;46.30;;;23.35;;
56037;SDS011;41907;47.848;9.000;2024-01-10T09:59:07;58.95;;;30.95;;
56037;SDS011;41907;47.848;9.000;2024-01-10T10:01:36;47.28;;;22.45;;
56037;SDS011;41907;47.848;9.000;2024-01-10T10:04:04;46.33;;;20.90;;
56037;SDS011;41907;47.848;9.000;2024-01-10T10:06:30;44.03;;;20.08;;
56037;SDS011;41907;47.848;9.000;2024-01-10T10:08:56;48.78;;;23.15;;
56037;SDS011;41907;47.848;9.000;2024-01-10T10:11:21;46.20;;;22.42;;
56037;SDS011;41907;47.848;9.000;2024-01-10T10:13:46;62.85;;;33.33;;
56037;SDS011;41907;47.848;9.000;2024-01-10T10:16:12;44.95;;;22.77;;
56037;SDS011;41907;47.848;9.000;2024-01-10T10:18:40;48.67;;;23.17;;
56037;SDS011;41907;47.848;9.000;2024-01-10T10:21:11;46.25;;;23.13;;
56037;SDS011;41907;47.848;9.000;2024-01-10T10:23:38;46.97;;;23.38;;
56037;SDS011;41907;47.848;9.000;2024-01-10T10:26:09;44.15;;;22.05;;
56037;SDS011;41907;47.848;9.000;2024-01-10T10:28:35;46.42;;;22.50;;
56037;SDS011;41907;47.848;9.000;2024-01-10T10:31:01;49.13;;;21.63;;
56037;SDS011;41907;47.848;9.000;2024-01-10T10:33:27;48.85;;;23.13;;
56037;SDS011;41907;47.848;9.000;2024-01-10T10:35:53;46.17;;;21.83;;
56037;SDS011;41907;47.848;9.000;2024-01-10T10:38:18;43.40;;;21.77;;
56037;SDS011;41907;47.848;9.000;2024-01-10T10:40:46;48.85;;;22.52;;
56037;SDS011;41907;47.848;9.000;2024-01-10T10:43:12;46.95;;;22.73;;
56037;SDS011;41907;47.848;9.000;2024-01-10T10:45:42;47.72;;;23.38;;
56037;SDS011;41907;47.848;9.000;2024-01-10T10:48:13;44.17;;;21.45;;
56037;SDS011;41907;47.848;9.000;2024-01-10T10:50:42;46.97;;;22.77;;
56037;SDS011;41907;47.848;9.000;2024-01-10T10:53:24;42.08;;;20.25;;
56037;SDS011;41907;47.848;9.000;2024-01-10T10:55:52;49.42;;;22.48;;
56037;SDS011;41907;47.848;9.000;2024-01-10T10:58:18;47.40;;;21.90;;
56037;SDS011;41907;47.848;9.000;2024-01-10T11:00:44;47.83;;;22.45;;
56037;SDS011;41907;47.848;9.000;2024-01-10T11:03:12;51.10;;;24.38;;
56037;SDS011;41907;47.848;9.000;2024-01-10T11:05:39;50.42;;;23.77;;
56037;SDS011;41907;47.848;9.000;2024-01-10T11:08:06;45.10;;;21.27;;
56037;SDS011;41907;47.848;9.000;2024-01-10T11:10:34;46.50;;;21.33;;
56037;SDS011;41907;47.848;9.000;2024-01-10T11:13:22;48.67;;;23.20;;
56037;SDS011;41907;47.848;9.000;2024-01-10T11:23:59;59.17;;;25.90;;
56037;SDS011;41907;47.848;9.000;2024-01-10T11:26:26;63.33;;;31.27;;
56037;SDS011;41907;47.848;9.000;2024-01-10T11:28:51;56.08;;;28.77;;
56037;SDS011;41907;47.848;9.000;2024-01-10T11:31:27;57.47;;;25.55;;
56037;SDS011;41907;47.848;9.000;2024-01-10T11:33:57;116.72;;;34.58;;
56037;SDS011;41907;47.848;9.000;2024-01-10T11:36:22;61.88;;;26.13;;
56037;SDS011;41907;47.848;9.000;2024-01-10T11:41:25;31.70;;;15.43;;
56037;SDS011;41907;47.848;9.000;2024-01-10T11:46:47;43.90;;;21.48;;
56037;SDS011;41907;47.848;9.000;2024-01-10T11:49:17;44.75;;;20.45;;
56037;SDS011;41907;47.848;9.000;2024-01-10T11:51:50;38.65;;;18.50;;
56037;SDS011;41907;47.848;9.000;2024-01-10T11:54:37;39.60;;;18.63;;
56037;SDS011;41907;47.848;9.000;2024-01-10T11:57:20;37.97;;;17.73;;
56037;SDS011;41907;47.848;9.000;2024-01-10T11:59:47;47.70;;;22.73;;
56037;SDS011;41907;47.848;9.000;2024-01-10T12:02:16;49.22;;;21.85;;
56037;SDS011;41907;47.848;9.000;2024-01-10T12:04:42;56.40;;;24.50;;
56037;SDS011;41907;47.848;9.000;2024-01-10T12:07:07;46.75;;;21.45;;
56037;SDS011;41907;47.848;9.000;2024-01-10T12:09:33;49.25;;;22.90;;
56037;SDS011;41907;47.848;9.000;2024-01-10T12:12:00;49.88;;;22.52;;
56037;SDS011;41907;47.848;9.000;2024-01-10T12:14:25;48.15;;;20.98;;
56037;SDS011;41907;47.848;9.000;2024-01-10T12:16:51;37.70;;;18.92;;
56037;SDS011;41907;47.848;9.000;2024-01-10T12:19:17;37.75;;;17.38;;
56037;SDS011;41907;47.848;9.000;2024-01-10T12:21:43;33.38;;;15.95;;
56037;SDS011;41907;47.848;9.000;2024-01-10T12:24:09;36.17;;;16.67;;
56037;SDS011;41907;47.848;9.000;2024-01-10T12:26:34;40.10;;;17.80;;
56037;SDS011;41907;47.848;9.000;2024-01-10T12:29:01;41.10;;;18.48;;
56037;SDS011;41907;47.848;9.000;2024-01-10T12:31:27;43.60;;;18.73;;
56037;SDS011;41907;47.848;9.000;2024-01-10T12:33:57;40.20;;;19.00;;
56037;SDS011;41907;47.848;9.000;2024-01-10T12:36:23;43.03;;;18.42;;
56037;SDS011;41907;47.848;9.000;2024-01-10T12:38:49;36.75;;;17.77;;
56037;SDS011;41907;47.848;9.000;2024-01-10T12:41:15;41.92;;;17.42;;
56037;SDS011;41907;47.848;9.000;2024-01-10T12:43:42;39.38;;;17.70;;
56037;SDS011;41907;47.848;9.000;2024-01-10T12:46:08;41.60;;;18.35;;
56037;SDS011;41907;47.848;9.000;2024-01-10T12:48:38;40.95;;;18.05;;
56037;SDS011;41907;47.848;9.000;2024-01-10T12:51:08;44.10;;;18.50;;
56037;SDS011;41907;47.848;9.000;2024-01-10T12:53:34;40.97;;;18.30;;
56037;SDS011;41907;47.848;9.000;2024-01-10T12:56:01;41.85;;;18.60;;
56037;SDS011;41907;47.848;9.000;2024-01-10T12:58:27;41.22;;;18.83;;
56037;SDS011;41907;47.848;9.000;2024-01-10T13:00:53;39.90;;;19.13;;
56037;SDS011;41907;47.848;9.000;2024-01-10T13:03:18;42.63;;;19.23;;
56037;SDS011;41907;47.848;9.000;2024-01-10T13:05:44;44.78;;;20.23;;
56037;SDS011;41907;47.848;9.000;2024-01-10T13:08:10;45.55;;;20.75;;
56037;SDS011;41907;47.848;9.000;2024-01-10T13:10:36;41.05;;;18.33;;
56037;SDS011;41907;47.848;9.000;2024-01-10T13:13:02;42.00;;;18.50;;
56037;SDS011;41907;47.848;9.000;2024-01-10T13:15:28;37.85;;;17.70;;
56037;SDS011;41907;47.848;9.000;2024-01-10T13:17:53;39.00;;;17.60;;
56037;SDS011;41907;47.848;9.000;2024-01-10T13:20:21;28.85;;;14.57;;
56037;SDS011;41907;47.848;9.000;2024-01-10T13:22:46;29.98;;;14.00;;
56037;SDS011;41907;47.848;9.000;2024-01-10T13:25:11;33.08;;;15.40;;
56037;SDS011;41907;47.848;9.000;2024-01-10T13:27:37;35.78;;;15.32;;
56037;SDS011;41907;47.848;9.000;2024-01-10T13:30:03;36.75;;;16.05;;
56037;SDS011;41907;47.848;9.000;2024-01-10T13:32:30;30.90;;;16.45;;
56037;SDS011;41907;47.848;9.000;2024-01-10T13:34:56;37.83;;;17.27;;
56037;SDS011;41907;47.848;9.000;2024-01-10T13:37:22;39.33;;;18.38;;
56037;SDS011;41907;47.848;9.000;2024-01-10T13:39:47;38.88;;;17.65;;
56037;SDS011;41907;47.848;9.000;2024-01-10T13:42:13;43.35;;;19.50;;
56037;SDS011;41907;47.848;9.000;2024-01-10T13:44:38;43.00;;;18.95;;
56037;SDS011;41907;47.848;9.000;2024-01-10T13:47:04;44.40;;;18.85;;
56037;SDS011;41907;47.848;9.000;2024-01-10T13:49:29;47.33;;;20.60;;
56037;SDS011;41907;47.848;9.000;2024-01-10T13:51:55;47.30;;;21.70;;
56037;SDS011;41907;47.848;9.000;2024-01-10T13:54:20;49.67;;;20.98;;
56037;SDS011;41907;47.848;9.000;2024-01-10T13:56:46;47.30;;;21.48;;
56037;SDS011;41907;47.848;9.000;2024-01-10T13:59:12;43.08;;;19.67;;
56037;SDS011;41907;47.848;9.000;2024-01-10T14:01:37;59.10;;;24.80;;
56037;SDS011;41907;47.848;9.000;2024-01-10T14:04:03;45.17;;;20.30;;
56037;SDS011;41907;47.848;9.000;2024-01-10T14:06:29;51.88;;;21.63;;
56037;SDS011;41907;47.848;9.000;2024-01-10T14:08:54;43.45;;;19.83;;
56037;SDS011;41907;47.848;9.000;2024-01-10T14:11:20;46.28;;;20.67;;
56037;SDS011;41907;47.848;9.000;2024-01-10T14:13:45;44.53;;;21.42;;
56037;SDS011;41907;47.848;9.000;2024-01-10T14:16:11;40.42;;;19.27;;
56037;SDS011;41907;47.848;9.000;2024-01-10T14:18:36;40.70;;;17.98;;
56037;SDS011;41907;47.848;9.000;2024-01-10T14:21:02;40.80;;;18.83;;
56037;SDS011;41907;47.848;9.000;2024-01-10T14:23:27;40.75;;;18.45;;
56037;SDS011;41907;47.848;9.000;2024-01-10T14:25:53;40.95;;;17.73;;
56037;SDS011;41907;47.848;9.000;2024-01-10T14:28:18;42.80;;;18.38;;